Time;durP1;ratioP1;P1;durP2;ratioP2;P2;SDS_P1;SDS_P2;PMS_P1;PMS_P2;Temp;Humidity;BMP_temperature;BMP_pressure;BME280_temperature;BME280_humidity;BME280_pressure;Samples;Min_cycle;Max_cycle;Signal;HPM_P1;HPM_P2
2024/02/08 00:02:21;;;;;;;;;;;;;;;11.98;55.07;99097.00;4993984;28;19913;-85
2024/02/08 00:04:47;;;;;;;;;;;;;;;11.94;55.28;99105.53;4993660;28;20383;-85
2024/02/08 00:07:12;;;;;;;;;;;;;;;11.91;55.27;99096.16;4993740;28;19916;-85
2024/02/08 00:09:37;;;;;;;;;;;;;;;11.88;55.78;99096.53;4993264;28;19921;-86
2024/02/08 00:12:03;;;;;;;;;;;;;;;11.87;55.53;99094.09;4976045;28;19917;-85
2024/02/08 00:14:29;;;;;;;;;;;;;;;11.89;54.42;99089.41;4975968;28;20004;-85
2024/02/08 00:16:55;;;;;;;;;;;;;;;11.88;55.97;99079.84;4975844;28;20381;-85
2024/02/08 00:19:20;;;;;;;;;;;;;;;11.88;56.58;99085.94;4993263;28;19949;-85
2024/02/08 00:21:45;;;;;;;;;;;;;;;11.89;54.86;99095.53;4975857;28;19917;-85
2024/02/08 00:24:11;;;;;;;;;;;;;;;11.90;55.46;99083.94;4975736;28;19973;-85
2024/02/08 00:26:36;;;;;;;;;;;;;;;11.92;54.87;99087.22;4975914;28;19921;-85
2024/02/08 00:29:01;;;;;;;;;;;;;;;11.91;55.15;99088.22;4993172;28;20008;-85
2024/02/08 00:31:26;;;;;;;;;;;;;;;11.89;55.47;99084.13;4993035;28;19914;-85
2024/02/08 00:33:52;;;;;;;;;;;;;;;11.88;55.48;99087.78;4975458;28;20051;-85
2024/02/08 00:36:17;;;;;;;;;;;;;;;11.91;55.42;99090.06;4975638;28;19913;-85
2024/02/08 00:38:45;;;;;;;;;;;;;;;11.90;54.91;99085.78;4975642;28;19918;-86
2024/02/08 00:41:10;;;;;;;;;;;;;;;11.90;55.04;99083.94;4974926;28;20016;-85
2024/02/08 00:43:39;;;;;;;;;;;;;;;11.88;55.05;99067.44;4993118;28;20088;-85
2024/02/08 00:46:04;;;;;;;;;;;;;;;11.88;54.53;99069.25;4975315;28;20302;-85
2024/02/08 00:48:29;;;;;;;;;;;;;;;11.84;55.39;99071.47;4975396;28;19913;-85
2024/02/08 00:50:55;;;;;;;;;;;;;;;11.85;54.89;99067.00;4975462;28;20096;-85
2024/02/08 00:53:20;;;;;;;;;;;;;;;11.85;55.04;99064.38;4992932;28;19917;-86
2024/02/08 00:55:46;;;;;;;;;;;;;;;11.85;54.20;99075.75;4992712;28;19913;-85
2024/02/08 00:58:15;;;;;;;;;;;;;;;11.83;54.59;99076.97;4975574;28;19976;-85
2024/02/08 01:00:40;;;;;;;;;;;;;;;11.81;53.86;99069.22;4993088;28;20402;-85
2024/02/08 01:03:07;;;;;;;;;;;;;;;11.76;56.12;99068.97;4992730;28;19921;-85
2024/02/08 01:05:32;;;;;;;;;;;;;;;11.73;56.49;99067.53;4975438;28;19937;-85
2024/02/08 01:08:00;;;;;;;;;;;;;;;11.71;56.07;99066.09;4992663;28;19913;-85
2024/02/08 01:10:25;;;;;;;;;;;;;;;11.71;55.06;99066.94;4975095;28;19955;-86
2024/02/08 01:12:52;;;;;;;;;;;;;;;11.72;55.56;99067.75;4992383;28;19913;-86
2024/02/08 01:15:17;;;;;;;;;;;;;;;11.71;55.95;99058.19;4992663;28;19921;-86
2024/02/08 01:17:43;;;;;;;;;;;;;;;11.69;54.97;99055.72;4992629;28;19913;-85
2024/02/08 01:20:08;;;;;;;;;;;;;;;11.69;55.33;99060.19;4992418;28;20276;-86
2024/02/08 01:22:34;;;;;;;;;;;;;;;11.67;55.75;99056.94;4992606;28;19914;-86
2024/02/08 01:24:59;;;;;;;;;;;;;;;11.67;55.84;99056.94;4974939;28;20004;-86
2024/02/08 01:27:24;;;;;;;;;;;;;;;11.66;55.71;99056.13;4992475;28;19914;-86
2024/02/08 01:29:50;;;;;;;;;;;;;;;11.65;56.45;99056.31;4992580;28;19925;-86
2024/02/08 01:32:15;;;;;;;;;;;;;;;11.65;55.45;99058.97;4992222;28;19914;-86
2024/02/08 01:34:44;;;;;;;;;;;;;;;11.64;55.08;99054.69;4974872;28;20006;-85
2024/02/08 01:37:10;;;;;;;;;;;;;;;11.63;55.27;99058.34;4992325;28;20001;-85
2024/02/08 01:39:35;;;;;;;;;;;;;;;11.61;55.16;99045.31;4992314;28;19941;-86
2024/02/08 01:42:00;;;;;;;;;;;;;;;11.58;55.28;99048.34;4974976;28;19914;-86
2024/02/08 01:44:26;;;;;;;;;;;;;;;11.59;55.48;99057.91;4992578;28;19913;-86
2024/02/08 01:46:51;;;;;;;;;;;;;;;11.60;55.24;99051.63;4992474;28;20004;-86
2024/02/08 01:49:21;;;;;;;;;;;;;;;11.60;54.90;99054.25;4992566;28;19922;-86
2024/02/08 01:51:46;;;;;;;;;;;;;;;11.59;55.20;99050.00;4974999;28;20418;-86
2024/02/08 01:54:12;;;;;;;;;;;;;;;11.58;55.26;99048.34;4978821;28;20012;-86
2024/02/08 01:56:41;;;;;;;;;;;;;;;11.55;55.48;99040.00;4996326;28;19956;-86
2024/02/08 01:59:08;;;;;;;;;;;;;;;11.53;55.70;99039.38;4978555;28;20395;-86
2024/02/08 02:01:33;;;;;;;;;;;;;;;11.48;56.16;99042.63;4996108;28;19953;-86
2024/02/08 02:03:59;;;;;;;;;;;;;;;11.45;56.69;99043.81;4978519;28;19976;-86
2024/02/08 02:06:24;;;;;;;;;;;;;;;11.42;56.60;99041.56;4995747;28;19963;-86
2024/02/08 02:08:57;;;;;;;;;;;;;;;11.43;56.50;99037.09;4978053;28;19945;-85
2024/02/08 02:11:35;;;;;;;;;;;;;;;11.39;56.37;99028.75;4978438;28;19933;-86
2024/02/08 02:14:02;;;;;;;;;;;;;;;11.40;55.43;99032.22;4996037;28;20453;-86
2024/02/08 02:16:28;;;;;;;;;;;;;;;11.39;56.16;99036.69;4995610;28;20310;-86
2024/02/08 02:18:53;;;;;;;;;;;;;;;11.39;55.11;99035.88;4978269;28;19917;-86
2024/02/08 02:21:19;;;;;;;;;;;;;;;11.37;55.30;99030.78;4995721;28;19921;-86
2024/02/08 02:23:45;;;;;;;;;;;;;;;11.30;56.67;99016.69;4978057;28;19921;-86
2024/02/08 02:26:12;;;;;;;;;;;;;;;11.26;56.97;99019.94;4978083;28;19914;-86
2024/02/08 02:28:38;;;;;;;;;;;;;;;11.22;56.34;99016.88;4995466;28;19918;-86
2024/02/08 02:31:06;;;;;;;;;;;;;;;11.21;56.37;99025.81;4977808;28;19914;-86
2024/02/08 02:33:34;;;;;;;;;;;;;;;11.23;55.81;99030.91;4995077;28;19945;-86
2024/02/08 02:36:00;;;;;;;;;;;;;;;11.21;56.83;99030.28;4995319;28;19917;-86
2024/02/08 02:38:27;;;;;;;;;;;;;;;11.15;56.69;99031.88;4995313;28;20383;-86
2024/02/08 02:40:52;;;;;;;;;;;;;;;11.12;55.93;99026.94;4977619;28;20430;-86
2024/02/08 02:43:18;;;;;;;;;;;;;;;11.11;56.45;99036.69;4995096;28;19954;-86
2024/02/08 02:45:43;;;;;;;;;;;;;;;11.11;55.66;99030.59;4977688;28;19918;-86
2024/02/08 02:48:08;;;;;;;;;;;;;;;11.12;55.65;99030.41;4995228;28;19949;-86
2024/02/08 02:50:34;;;;;;;;;;;;;;;11.08;56.27;99033.63;4977499;28;20361;-86
2024/02/08 02:52:59;;;;;;;;;;;;;;;11.07;56.14;99039.91;4977498;28;19918;-86
2024/02/08 02:55:25;;;;;;;;;;;;;;;11.07;55.16;99038.09;4977311;28;19917;-86
2024/02/08 02:57:51;;;;;;;;;;;;;;;11.07;56.03;99039.91;4977301;28;19913;-86
2024/02/08 03:00:23;;;;;;;;;;;;;;;11.02;55.79;99042.31;4977359;28;19945;-86
2024/02/08 03:02:49;;;;;;;;;;;;;;;10.99;56.24;99045.34;4977311;28;20310;-86
2024/02/08 03:05:17;;;;;;;;;;;;;;;10.97;56.41;99042.91;4994112;28;19918;-86
2024/02/08 03:07:43;;;;;;;;;;;;;;;10.99;55.55;99042.69;4994765;28;19914;-86
2024/02/08 03:10:11;;;;;;;;;;;;;;;10.98;55.30;99041.88;4994560;28;19929;-86
2024/02/08 03:12:37;;;;;;;;;;;;;;;10.93;55.79;99046.13;4977259;28;19914;-86
2024/02/08 03:15:03;;;;;;;;;;;;;;;10.92;55.95;99049.75;4994616;28;19910;-86
2024/02/08 03:17:31;;;;;;;;;;;;;;;10.91;55.50;99061.34;4994790;28;19913;-86
2024/02/08 03:19:57;;;;;;;;;;;;;;;10.88;55.73;99053.78;4977037;28;20026;-86
2024/02/08 03:22:22;;;;;;;;;;;;;;;10.87;55.40;99046.88;4976975;28;19914;-86
2024/02/08 03:24:49;;;;;;;;;;;;;;;10.85;55.83;99051.53;4976836;28;19935;-86
2024/02/08 03:27:16;;;;;;;;;;;;;;;10.73;56.17;99049.44;4976707;28;19918;-86
2024/02/08 03:29:53;;;;;;;;;;;;;;;10.66;55.88;99056.47;4994246;28;20004;-86
2024/02/08 03:32:22;;;;;;;;;;;;;;;10.63;55.61;99048.94;4977024;28;19914;-86
2024/02/08 03:34:50;;;;;;;;;;;;;;;10.60;55.16;99054.59;4994378;28;19968;-86
2024/02/08 03:37:15;;;;;;;;;;;;;;;10.61;55.53;99055.41;4976541;28;19914;-86
2024/02/08 03:39:40;;;;;;;;;;;;;;;10.57;55.98;99052.34;4976664;28;20370;-86
2024/02/08 03:42:06;;;;;;;;;;;;;;;10.54;55.99;99044.78;4994507;28;20366;-86
2024/02/08 03:44:31;;;;;;;;;;;;;;;10.53;55.79;99052.91;4977199;28;20378;-86
2024/02/08 03:47:04;;;;;;;;;;;;;;;10.50;56.36;99043.53;4976824;28;19953;-86
2024/02/08 03:49:30;;;;;;;;;;;;;;;10.48;55.52;99035.00;4976590;28;19924;-86
2024/02/08 03:51:56;;;;;;;;;;;;;;;10.46;55.88;99042.28;4976598;28;20008;-86
2024/02/08 03:54:24;;;;;;;;;;;;;;;10.41;55.19;99044.69;4994272;28;19937;-86
2024/02/08 03:56:50;;;;;;;;;;;;;;;10.42;55.43;99044.50;4976520;28;20001;-86
2024/02/08 03:59:26;;;;;;;;;;;;;;;10.39;56.27;99036.91;4976385;28;19957;-86
2024/02/08 04:02:01;;;;;;;;;;;;;;;10.39;56.19;99036.09;4976177;28;19918;-86
2024/02/08 04:04:34;;;;;;;;;;;;;;;10.37;56.15;99038.94;4976082;28;19913;-86
2024/02/08 04:07:14;;;;;;;;;;;;;;;10.27;56.16;99033.16;4993687;28;19932;-86
2024/02/08 04:09:48;;;;;;;;;;;;;;;10.23;55.67;99042.44;4975938;28;19977;-86
2024/02/08 04:53:44;;;;;;;;;;;;;;;9.65;55.27;99057.38;4992901;28;19920;-86
2024/02/08 04:56:10;;;;;;;;;;;;;;;9.65;55.15;99059.19;4992549;28;20378;-86
2024/02/08 04:58:40;;;;;;;;;;;;;;;9.66;54.60;99055.53;4992532;28;19961;-86
2024/02/08 05:01:08;;;;;;;;;;;;;;;9.67;55.07;99062.47;4992582;28;20342;-86
2024/02/08 05:03:37;;;;;;;;;;;;;;;9.66;54.60;99056.41;4992525;28;19948;-86
2024/02/08 05:06:02;;;;;;;;;;;;;;;9.64;55.03;99055.72;4992662;28;19914;-86
2024/02/08 05:08:28;;;;;;;;;;;;;;;9.63;54.59;99069.91;4975057;28;20016;-86
2024/02/08 05:10:53;;;;;;;;;;;;;;;9.64;54.89;99062.81;4992422;28;19929;-87
2024/02/08 05:13:24;;;;;;;;;;;;;;;9.60;54.52;99061.56;4992525;28;19936;-86
2024/02/08 05:15:50;;;;;;;;;;;;;;;9.60;54.74;99058.91;4992493;28;19914;-86
2024/02/08 05:18:15;;;;;;;;;;;;;;;9.59;54.91;99063.38;4975093;28;20454;-86
2024/02/08 05:20:41;;;;;;;;;;;;;;;9.52;55.54;99065.09;4975002;28;19918;-86
2024/02/08 05:23:06;;;;;;;;;;;;;;;9.50;55.36;99073.19;4975002;28;19914;-86
2024/02/08 05:25:35;;;;;;;;;;;;;;;9.47;54.95;99078.81;4992437;28;19997;-87
2024/02/08 05:28:03;;;;;;;;;;;;;;;9.39;55.43;99089.47;4991966;28;20363;-86
2024/02/08 05:30:30;;;;;;;;;;;;;;;9.35;55.07;99080.28;4975017;28;19924;-86
2024/02/08 05:32:59;;;;;;;;;;;;;;;9.32;55.25;99085.09;4992483;28;20402;-86
2024/02/08 05:35:26;;;;;;;;;;;;;;;9.31;55.09;99079.00;4974840;28;19957;-86
2024/02/08 05:37:53;;;;;;;;;;;;;;;9.32;55.43;99090.38;4974901;28;19964;-87
2024/02/08 05:40:20;;;;;;;;;;;;;;;9.33;54.34;99087.56;4974902;28;19914;-86
2024/02/08 05:42:47;;;;;;;;;;;;;;;9.31;54.63;99083.47;4974747;28;19914;-86
2024/02/08 05:45:30;;;;;;;;;;;;;;;9.29;55.00;99088.91;4974737;28;19914;-86
2024/02/08 05:48:00;;;;;;;;;;;;;;;9.29;54.91;99096.00;4974665;28;19917;-86
2024/02/08 05:50:25;;;;;;;;;;;;;;;9.30;55.20;99097.63;4992225;28;19925;-86
2024/02/08 05:52:57;;;;;;;;;;;;;;;9.29;55.48;99094.19;4974678;28;19914;-87
2024/02/08 05:55:24;;;;;;;;;;;;;;;9.29;54.78;99096.81;4974674;28;19921;-86
2024/02/08 05:57:50;;;;;;;;;;;;;;;9.32;54.86;99101.72;4974730;28;19914;-87
2024/02/08 06:00:32;;;;;;;;;;;;;;;9.35;54.27;99100.53;4974708;28;20000;-86
2024/02/08 06:03:01;;;;;;;;;;;;;;;9.36;54.50;99113.53;4974638;28;19914;-86
2024/02/08 06:05:26;;;;;;;;;;;;;;;9.39;54.65;99107.09;4974613;28;19914;-86
2024/02/08 06:07:56;;;;;;;;;;;;;;;9.41;54.56;99108.53;4974650;28;19968;-86
2024/02/08 06:10:23;;;;;;;;;;;;;;;9.41;54.41;99105.91;4991713;28;19922;-86
2024/02/08 06:12:57;;;;;;;;;;;;;;;9.42;54.41;99106.72;4991783;28;19929;-87
2024/02/08 06:15:32;;;;;;;;;;;;;;;9.40;55.06;99114.00;4974526;28;20317;-86
2024/02/08 06:18:03;;;;;;;;;;;;;;;9.36;54.67;99105.63;4991855;28;19910;-87
2024/02/08 06:20:43;;;;;;;;;;;;;;;9.34;54.75;99107.63;4974286;28;19953;-86
2024/02/08 06:23:17;;;;;;;;;;;;;;;9.35;54.29;99113.72;4991864;28;19947;-86
2024/02/08 06:26:01;;;;;;;;;;;;;;;9.39;54.69;99117.63;4974347;28;19910;-86
2024/02/08 06:28:26;;;;;;;;;;;;;;;9.39;54.12;99101.81;4991792;28;19918;-86
2024/02/08 06:30:51;;;;;;;;;;;;;;;9.39;54.45;99107.91;4991727;28;19993;-86
2024/02/08 06:33:25;;;;;;;;;;;;;;;9.44;54.03;99097.63;4992117;28;19914;-86
2024/02/08 06:35:56;;;;;;;;;;;;;;;9.49;54.02;99105.00;4991937;28;20016;-87
2024/02/08 06:38:40;;;;;;;;;;;;;;;9.54;54.01;99111.34;4972674;28;20001;-86
2024/02/08 06:41:09;;;;;;;;;;;;;;;9.60;53.51;99107.19;4984047;28;19918;-86
2024/02/08 06:43:57;;;;;;;;;;;;;;;9.67;53.84;99112.56;4958772;28;19922;-86
2024/02/08 06:46:39;;;;;;;;;;;;;;;9.72;53.86;99118.94;4975659;28;19914;-86
2024/02/08 07:39:30;;;;;;;;;;;;;;;10.69;51.93;99135.31;5013945;28;20394;-86
2024/02/08 07:41:21;;;;;;;;;;;;;;;10.83;50.82;99136.25;5000729;28;19989;-86
2024/02/08 07:43:54;;;;;;;;;;;;;;;10.92;50.87;99132.47;5006930;28;19918;-86
2024/02/08 07:46:26;;;;;;;;;;;;;;;11.01;50.92;99136.59;4985047;28;19925;-86
2024/02/08 07:48:58;;;;;;;;;;;;;;;11.10;51.13;99137.28;5006449;28;19953;-86
2024/02/08 07:51:23;;;;;;;;;;;;;;;11.24;50.81;99136.41;4976866;28;19993;-85
2024/02/08 07:53:53;;;;;;;;;;;;;;;11.36;51.00;99134.88;4994708;28;19945;-86
2024/02/08 07:56:40;;;;;;;;;;;;;;;11.45;50.22;99125.78;4991944;28;19914;-86
2024/02/08 07:59:06;;;;;;;;;;;;;;;11.58;50.06;99130.31;4991620;28;19914;-86
2024/02/08 08:01:32;;;;;;;;;;;;;;;11.68;50.02;99132.63;4991438;28;20405;-85
2024/02/08 08:04:01;;;;;;;;;;;;;;;11.77;49.90;99136.72;4991394;28;19914;-86
2024/02/08 08:06:34;;;;;;;;;;;;;;;11.86;49.58;99132.94;4991451;28;19914;-86
2024/02/08 08:09:18;;;;;;;;;;;;;;;11.93;49.79;99135.66;4993061;28;19937;-86
2024/02/08 08:11:45;;;;;;;;;;;;;;;12.02;48.80;99129.19;4974140;28;19922;-85
2024/02/08 08:14:36;;;;;;;;;;;;;;;12.05;49.01;99120.84;4975733;28;20452;-85
2024/02/08 08:17:08;;;;;;;;;;;;;;;12.15;48.49;99121.28;4992649;28;19997;-85
2024/02/08 08:19:44;;;;;;;;;;;;;;;12.26;48.27;99123.34;4992935;28;19918;-85
2024/02/08 08:30:30;;;;;;;;;;;;;;;12.69;47.84;99125.72;4993157;28;19968;-85
2024/02/08 08:35:47;;;;;;;;;;;;;;;12.87;46.86;99127.78;4993329;28;19914;-85
2024/02/08 08:40:48;;;;;;;;;;;;;;;13.00;46.95;99128.59;4991695;28;19922;-85
2024/02/08 08:43:24;;;;;;;;;;;;;;;13.12;46.74;99135.94;4993102;28;20375;-84
2024/02/08 08:45:50;;;;;;;;;;;;;;;13.23;46.62;99135.34;4992419;28;20387;-84
2024/02/08 08:48:19;;;;;;;;;;;;;;;13.33;45.91;99136.56;4990957;28;19925;-84
2024/02/08 08:50:55;;;;;;;;;;;;;;;13.43;45.47;99135.38;4975151;28;19917;-85
2024/02/08 08:53:28;;;;;;;;;;;;;;;13.51;45.34;99133.31;4991120;28;20284;-84
2024/02/08 08:55:57;;;;;;;;;;;;;;;13.61;45.58;99133.69;4988608;28;19972;-85
2024/02/08 08:58:27;;;;;;;;;;;;;;;13.68;44.84;99123.06;4992391;28;19917;-85
2024/02/08 09:01:04;;;;;;;;;;;;;;;13.75;44.47;99126.50;4974255;28;19940;-85
2024/02/08 09:03:33;;;;;;;;;;;;;;;13.84;44.88;99124.44;4991937;28;19914;-84
2024/02/08 09:05:59;;;;;;;;;;;;;;;13.93;44.63;99117.88;4992110;28;19914;-84
2024/02/08 09:08:54;;;;;;;;;;;;;;;14.06;44.81;99117.00;4975012;28;20395;-84
2024/02/08 09:11:24;;;;;;;;;;;;;;;14.21;44.79;99113.09;4998107;28;19925;-85
2024/02/08 09:13:51;;;;;;;;;;;;;;;14.32;44.65;99108.94;4990883;28;19917;-84
2024/02/08 09:21:32;;;;;;;;;;;;;;;14.62;44.52;99107.38;5011032;28;19921;-84
2024/02/08 09:24:07;;;;;;;;;;;;;;;14.76;44.55;99096.63;5011368;28;20395;-85
2024/02/08 09:26:48;;;;;;;;;;;;;;;14.89;44.54;99096.56;5009636;28;19953;-84
2024/02/08 09:29:15;;;;;;;;;;;;;;;15.03;44.21;99087.44;4984118;28;19922;-85
2024/02/08 09:31:43;;;;;;;;;;;;;;;15.12;44.11;99091.47;4997780;28;19924;-85
2024/02/08 09:34:15;;;;;;;;;;;;;;;15.20;43.76;99085.88;4996661;28;19975;-85
2024/02/08 09:36:44;;;;;;;;;;;;;;;15.26;44.32;99085.00;4982668;28;19918;-84
2024/02/08 09:39:15;;;;;;;;;;;;;;;15.34;44.56;99081.22;5006507;28;20020;-85
2024/02/08 09:41:47;;;;;;;;;;;;;;;15.43;44.09;99079.91;5007257;28;20064;-84
2024/02/08 09:44:13;;;;;;;;;;;;;;;15.51;43.65;99084.13;4981351;28;19918;-84
2024/02/08 09:49:15;;;;;;;;;;;;;;;15.68;43.42;99074.56;5001209;28;19965;-84
2024/02/08 09:51:41;;;;;;;;;;;;;;;15.71;42.58;99071.47;5002185;28;19925;-84
2024/02/08 09:54:15;;;;;;;;;;;;;;;15.71;42.06;99075.97;4996194;28;19922;-83
2024/02/08 09:56:49;;;;;;;;;;;;;;;15.69;41.80;99076.19;4973191;28;20307;-84
2024/02/08 09:59:18;;;;;;;;;;;;;;;15.75;43.45;99070.00;4992428;28;19941;-84
2024/02/08 10:01:44;;;;;;;;;;;;;;;15.82;41.48;99073.38;4991917;28;20304;-84
2024/02/08 10:04:25;;;;;;;;;;;;;;;15.92;43.42;99062.22;4991923;28;19913;-84
2024/02/08 10:09:40;;;;;;;;;;;;;;;16.04;40.22;99051.59;4996561;28;19926;-83
2024/02/08 10:12:08;;;;;;;;;;;;;;;16.11;40.81;99052.34;4977659;28;19932;-84
2024/02/08 10:14:34;;;;;;;;;;;;;;;16.17;41.25;99046.09;4993197;28;20008;-86
2024/02/08 10:17:40;;;;;;;;;;;;;;;16.23;41.41;99045.19;4969802;28;19977;-85
2024/02/08 10:28:21;;;;;;;;;;;;;;;16.41;39.13;99026.50;4986428;28;19976;-84
2024/02/08 10:31:05;;;;;;;;;;;;;;;16.44;41.19;99023.38;4975687;28;20009;-85
2024/02/08 10:33:37;;;;;;;;;;;;;;;16.48;39.68;99018.41;4958622;28;19918;-85
2024/02/08 10:36:15;;;;;;;;;;;;;;;16.51;39.61;98999.31;4976327;28;20009;-85
2024/02/08 10:38:55;;;;;;;;;;;;;;;16.53;39.87;99005.22;4975645;28;20323;-85
2024/02/08 10:41:28;;;;;;;;;;;;;;;16.57;40.75;98989.56;4976734;28;19918;-83
2024/02/08 10:43:58;;;;;;;;;;;;;;;16.62;40.34;98989.69;4976630;28;19961;-83
2024/02/08 10:46:42;;;;;;;;;;;;;;;16.67;41.27;98982.66;4958202;28;20323;-84
2024/02/08 10:49:11;;;;;;;;;;;;;;;16.78;41.68;98979.19;4976632;28;19918;-84
2024/02/08 10:51:36;;;;;;;;;;;;;;;16.88;40.80;98993.78;4992836;28;19917;-84
2024/02/08 10:54:05;;;;;;;;;;;;;;;16.95;41.08;98979.31;4977086;28;20370;-84
2024/02/08 10:56:40;;;;;;;;;;;;;;;17.04;41.10;98977.91;4980135;28;20005;-83
2024/02/08 11:01:32;;;;;;;;;;;;;;;17.17;41.34;98978.72;4975577;28;20053;-84
2024/02/08 11:04:01;;;;;;;;;;;;;;;17.17;41.52;98976.88;4975698;28;20399;-83
2024/02/08 11:06:29;;;;;;;;;;;;;;;17.15;40.07;98969.09;4977677;28;20008;-84
2024/02/08 11:09:14;;;;;;;;;;;;;;;17.14;40.62;98972.81;4964594;28;19921;-84
2024/02/08 11:12:06;;;;;;;;;;;;;;;17.11;40.68;98969.81;4980089;28;19961;-83
2024/02/08 11:14:40;;;;;;;;;;;;;;;17.07;40.72;98966.75;4973180;28;20411;-83
2024/02/08 11:17:11;;;;;;;;;;;;;;;16.99;40.83;98964.44;4997047;28;20350;-83
2024/02/08 11:19:39;;;;;;;;;;;;;;;16.96;40.29;98956.91;4993273;28;19968;-83
2024/02/08 11:25:19;;;;;;;;;;;;;;;16.83;41.26;98943.84;4993207;28;19924;-83
2024/02/08 11:27:55;;;;;;;;;;;;;;;16.79;41.04;98953.34;4977111;28;19914;-83
2024/02/08 11:30:39;;;;;;;;;;;;;;;16.75;41.33;98952.19;4997692;28;19980;-83
2024/02/08 11:33:12;;;;;;;;;;;;;;;16.71;41.48;98941.16;4976278;28;20060;-83
2024/02/08 11:35:45;;;;;;;;;;;;;;;16.69;41.45;98937.13;4981062;28;19925;-84
2024/02/08 11:38:16;;;;;;;;;;;;;;;16.71;41.58;98932.38;4976066;28;20382;-83
2024/02/08 11:40:45;;;;;;;;;;;;;;;16.76;41.36;98935.16;4976554;28;19941;-83
2024/02/08 11:43:19;;;;;;;;;;;;;;;16.81;41.18;98930.72;4994540;28;20012;-82
2024/02/08 11:45:52;;;;;;;;;;;;;;;16.86;41.32;98932.69;4994742;28;20466;-84
2024/02/08 11:48:23;;;;;;;;;;;;;;;16.88;41.25;98924.47;5010022;28;19914;-83
2024/02/08 11:50:49;;;;;;;;;;;;;;;16.91;41.23;98924.00;4991489;28;19984;-84
2024/02/08 11:53:31;;;;;;;;;;;;;;;16.92;40.95;98921.09;4994223;28;19949;-83
2024/02/08 11:56:03;;;;;;;;;;;;;;;16.94;41.15;98912.88;4994303;28;19996;-83
2024/02/08 11:58:32;;;;;;;;;;;;;;;16.96;42.15;98900.91;4992802;28;20395;-83
2024/02/08 12:00:58;;;;;;;;;;;;;;;16.96;42.64;98906.25;4993819;28;19921;-82
2024/02/08 12:03:26;;;;;;;;;;;;;;;17.00;42.29;98893.25;4993484;28;19926;-83
2024/02/08 12:05:57;;;;;;;;;;;;;;;17.03;42.50;98890.94;4993622;28;19914;-83
2024/02/08 12:08:23;;;;;;;;;;;;;;;17.04;42.30;98879.22;4976065;28;19914;-84
2024/02/08 12:10:49;;;;;;;;;;;;;;;17.03;42.75;98885.59;4975919;28;19957;-83
2024/02/08 12:13:16;;;;;;;;;;;;;;;17.02;42.71;98881.31;4975715;28;19918;-83
2024/02/08 12:15:48;;;;;;;;;;;;;;;17.01;42.53;98882.34;4993158;28;19925;-83
2024/02/08 12:18:14;;;;;;;;;;;;;;;17.00;42.67;98869.25;4975139;28;20393;-83
2024/02/08 12:20:43;;;;;;;;;;;;;;;17.00;42.27;98878.06;4993278;28;19913;-83
2024/02/08 12:23:09;;;;;;;;;;;;;;;17.00;42.26;98875.41;4993579;28;20005;-83
2024/02/08 12:25:34;;;;;;;;;;;;;;;16.99;42.11;98871.09;4993207;28;19945;-83
2024/02/08 12:28:02;;;;;;;;;;;;;;;17.00;42.02;98870.06;4993335;28;20506;-83
2024/02/08 12:30:32;;;;;;;;;;;;;;;17.01;42.34;98873.53;4975819;28;19929;-84
2024/02/08 12:33:07;;;;;;;;;;;;;;;17.01;41.93;98863.69;4975383;28;20498;-83
2024/02/08 12:35:33;;;;;;;;;;;;;;;17.02;41.40;98867.97;4975523;28;20004;-83
2024/02/08 12:37:59;;;;;;;;;;;;;;;17.06;41.49;98862.97;4975038;28;19914;-83
2024/02/08 12:40:29;;;;;;;;;;;;;;;17.09;41.85;98859.84;4980856;28;19929;-83
2024/02/08 12:42:54;;;;;;;;;;;;;;;17.09;42.25;98851.84;4994111;28;19921;-84
2024/02/08 12:45:19;;;;;;;;;;;;;;;17.07;42.01;98846.72;4993258;28;19918;-83
2024/02/08 12:47:51;;;;;;;;;;;;;;;17.07;42.00;98848.59;5001657;28;19917;-83
2024/02/08 12:50:17;;;;;;;;;;;;;;;17.07;42.07;98846.72;4995068;28;19988;-82
2024/02/08 12:52:43;;;;;;;;;;;;;;;17.07;41.30;98841.41;5012788;28;20383;-83
2024/02/08 12:55:13;;;;;;;;;;;;;;;17.09;41.82;98836.66;4980072;28;19918;-83
2024/02/08 12:57:39;;;;;;;;;;;;;;;17.10;41.96;98837.47;5012478;28;19970;-83
2024/02/08 13:00:09;;;;;;;;;;;;;;;17.09;42.16;98826.00;5006854;28;19922;-82
2024/02/08 13:02:35;;;;;;;;;;;;;;;17.09;42.22;98833.16;4992593;28;19929;-82
2024/02/08 13:05:03;;;;;;;;;;;;;;;17.15;41.99;98830.38;4977830;28;19933;-82
2024/02/08 13:07:28;;;;;;;;;;;;;;;17.20;42.55;98837.69;4991529;28;19961;-83
2024/02/08 13:10:02;;;;;;;;;;;;;;;17.22;42.73;98832.09;4977342;28;20043;-82
2024/02/08 13:12:29;;;;;;;;;;;;;;;17.23;42.24;98829.19;4975291;28;20072;-82
2024/02/08 13:14:56;;;;;;;;;;;;;;;17.22;42.59;98824.91;4992746;28;19917;-82
2024/02/08 13:17:25;;;;;;;;;;;;;;;17.21;42.22;98817.94;4992371;28;19913;-82
2024/02/08 13:19:55;;;;;;;;;;;;;;;17.20;42.06;98816.34;4974791;28;19917;-83
2024/02/08 13:22:24;;;;;;;;;;;;;;;17.24;41.92;98817.47;4992365;28;19996;-81
2024/02/08 13:24:53;;;;;;;;;;;;;;;17.28;41.88;98815.13;4992210;28;20395;-82
2024/02/08 13:27:29;;;;;;;;;;;;;;;17.33;41.38;98823.25;4974852;28;19940;-83
2024/02/08 13:29:57;;;;;;;;;;;;;;;17.39;40.67;98811.59;4988567;28;19933;-83
2024/02/08 13:32:27;;;;;;;;;;;;;;;17.41;40.40;98812.19;4974596;28;19914;-83
2024/02/08 13:34:52;;;;;;;;;;;;;;;17.42;40.60;98811.94;4992275;28;19918;-83
2024/02/08 13:37:18;;;;;;;;;;;;;;;17.44;40.70;98811.69;4992423;28;20000;-83
2024/02/08 13:39:43;;;;;;;;;;;;;;;17.49;40.32;98809.13;4974467;28;19920;-83
2024/02/08 13:42:09;;;;;;;;;;;;;;;17.52;41.08;98805.16;4992117;28;19921;-84
2024/02/08 13:44:35;;;;;;;;;;;;;;;17.54;40.95;98811.06;4991566;28;19941;-82
2024/02/08 13:47:03;;;;;;;;;;;;;;;17.56;40.83;98804.44;4974777;28;20372;-82
2024/02/08 13:49:32;;;;;;;;;;;;;;;17.60;41.26;98800.22;4995277;28;20355;-83
2024/02/08 13:51:57;;;;;;;;;;;;;;;17.64;40.89;98796.03;4995887;28;20387;-83
2024/02/08 13:54:22;;;;;;;;;;;;;;;17.66;40.94;98799.28;4978326;28;19972;-82
2024/02/08 13:56:48;;;;;;;;;;;;;;;17.68;41.14;98797.19;4996249;28;19914;-83
2024/02/08 13:59:14;;;;;;;;;;;;;;;17.73;41.19;98794.59;4996271;28;19972;-82
2024/02/08 14:01:44;;;;;;;;;;;;;;;17.76;40.84;98799.47;4978867;28;19920;-83
2024/02/08 14:04:10;;;;;;;;;;;;;;;17.77;40.37;98786.91;4977694;28;19918;-83
2024/02/08 14:06:41;;;;;;;;;;;;;;;17.77;40.46;98790.41;4995009;28;19925;-82
2024/02/08 14:09:19;;;;;;;;;;;;;;;17.78;40.42;98789.34;4995605;28;19921;-82
2024/02/08 14:11:51;;;;;;;;;;;;;;;17.82;40.69;98788.84;4978558;28;19918;-82
2024/02/08 14:14:17;;;;;;;;;;;;;;;17.84;40.65;98790.25;4978590;28;19914;-82
2024/02/08 14:16:52;;;;;;;;;;;;;;;17.87;40.31;98788.97;4995856;28;19914;-83
2024/02/08 14:19:21;;;;;;;;;;;;;;;17.93;40.81;98796.00;4978369;28;19921;-82
2024/02/08 14:21:47;;;;;;;;;;;;;;;17.94;40.53;98797.63;4978366;28;19921;-83
2024/02/08 14:24:14;;;;;;;;;;;;;;;17.95;40.34;98796.56;4977992;28;19917;-82
2024/02/08 14:26:43;;;;;;;;;;;;;;;17.97;40.50;98805.16;4978035;28;19940;-82
2024/02/08 14:29:08;;;;;;;;;;;;;;;17.94;40.71;98803.78;4995669;28;19914;-83
2024/02/08 14:31:35;;;;;;;;;;;;;;;17.94;40.80;98810.97;4978271;28;19929;-83
2024/02/08 14:34:02;;;;;;;;;;;;;;;17.98;40.74;98809.44;4995656;28;19914;-82
2024/02/08 14:36:28;;;;;;;;;;;;;;;17.96;41.08;98809.69;4995574;28;20005;-83
2024/02/08 14:38:53;;;;;;;;;;;;;;;17.93;41.07;98806.69;4995183;28;19988;-83
2024/02/08 14:41:34;;;;;;;;;;;;;;;17.90;41.08;98799.16;4995394;28;19921;-83
2024/02/08 14:44:16;;;;;;;;;;;;;;;17.85;40.65;98805.22;4977111;28;20387;-82
2024/02/08 14:46:46;;;;;;;;;;;;;;;17.78;41.04;98801.88;4978071;28;19921;-82
2024/02/08 14:49:22;;;;;;;;;;;;;;;17.74;40.84;98804.22;4994774;28;19918;-82
2024/02/08 14:51:48;;;;;;;;;;;;;;;17.68;41.15;98802.53;4995036;28;19918;-82
2024/02/08 14:54:13;;;;;;;;;;;;;;;17.64;41.26;98804.03;4977635;28;19999;-82
2024/02/08 14:56:41;;;;;;;;;;;;;;;17.57;41.47;98806.06;4994622;28;19925;-83
2024/02/08 14:59:09;;;;;;;;;;;;;;;17.52;41.40;98799.81;4977164;28;19936;-83
2024/02/08 15:01:38;;;;;;;;;;;;;;;17.48;41.61;98810.16;4976573;28;19929;-82
2024/02/08 15:04:16;;;;;;;;;;;;;;;17.43;41.73;98805.56;4994023;28;19918;-83
2024/02/08 15:12:09;;;;;;;;;;;;;;;17.26;42.23;98815.38;4995343;28;20395;-83
2024/02/08 15:14:37;;;;;;;;;;;;;;;17.21;42.22;98811.81;4995010;28;20354;-83